Oshkosh, Nebraska
Current Conditions -  °F | °C
As of 6:55 AM on Thursday 25 Dec 2014 (Local Time) from KOGA Reporting Station
Clear Clear  
Wind Chill: 24°   Ceiling: Unl
Heat Index: 24°   Visibility: 10mi
Dew Point: 22°   Wind: 0mph
Humidity: 94%   Direction: NA
Pressure: 29.44"   Gusts: NA
Location:  41.41°N, 102.34°W
Report Text: KOGA 251355Z AUTO 00000KT 10SM CLR M05/M05 A2944 RMK AO2 T10471055
Loading
Personal Weather Stations






























Interactive Weather Map New forecast layout! Learn more

10-Day Weather Forecast

Advertisements
Track Severe Weather on mobile